Time;durP1;ratioP1;P1;durP2;ratioP2;P2;SDS_P1;SDS_P2;PMS_P1;PMS_P2;Temp;Humidity;BMP_temperature;BMP_pressure;BME280_temperature;BME280_humidity;BME280_pressure;Samples;Min_cycle;Max_cycle;Signal;HPM_P1;HPM_P2
2021/01/24 00:01:55;;;;;;;16.58;14.15;;;;;;;;;;5034527;28;20202;-61
2021/01/24 00:04:23;;;;;;;13.75;12.32;;;;;;;;;;5034564;28;20202;-62
2021/01/24 00:06:51;;;;;;;17.67;13.23;;;;;;;;;;5034839;28;20284;-62
2021/01/24 00:09:18;;;;;;;14.82;12.70;;;;;;;;;;5034534;28;20230;-63
2021/01/24 00:11:45;;;;;;;15.65;11.90;;;;;;;;;;5036386;28;20571;-62
2021/01/24 00:14:11;;;;;;;16.80;13.77;;;;;;;;;;5040899;28;20704;-62
2021/01/24 00:16:38;;;;;;;15.75;13.05;;;;;;;;;;5036349;28;20705;-62
2021/01/24 00:19:05;;;;;;;14.75;12.40;;;;;;;;;;5037736;28;20276;-63
2021/01/24 00:21:32;;;;;;;18.80;13.23;;;;;;;;;;5038761;28;20736;-62
2021/01/24 00:23:59;;;;;;;14.80;12.52;;;;;;;;;;5042653;28;20198;-62
2021/01/24 00:26:26;;;;;;;15.27;12.52;;;;;;;;;;5042530;28;20202;-63
2021/01/24 00:28:53;;;;;;;16.80;12.65;;;;;;;;;;5042983;28;20225;-63
2021/01/24 00:31:19;;;;;;;15.07;12.00;;;;;;;;;;5043365;28;20202;-63
2021/01/24 00:33:46;;;;;;;14.32;12.68;;;;;;;;;;5043500;28;20209;-63
2021/01/24 00:36:14;;;;;;;14.10;11.35;;;;;;;;;;5039783;28;20202;-62
2021/01/24 00:38:42;;;;;;;13.43;11.48;;;;;;;;;;5037620;28;20230;-61
2021/01/24 00:41:08;;;;;;;14.75;12.32;;;;;;;;;;5037211;28;20206;-61
2021/01/24 00:43:35;;;;;;;16.27;12.18;;;;;;;;;;5037830;28;20209;-62
2021/01/24 00:46:02;;;;;;;15.02;10.70;;;;;;;;;;5039661;28;20203;-62
2021/01/24 00:48:33;;;;;;;13.38;11.50;;;;;;;;;;5038620;28;20279;-63
2021/01/24 00:51:00;;;;;;;13.85;12.30;;;;;;;;;;5040599;28;20274;-63
2021/01/24 00:53:26;;;;;;;19.20;12.93;;;;;;;;;;5037840;28;20221;-62
2021/01/24 00:55:54;;;;;;;14.00;12.05;;;;;;;;;;5037800;28;20667;-62
2021/01/24 00:58:21;;;;;;;14.43;12.57;;;;;;;;;;5038611;28;20221;-62
2021/01/24 01:00:48;;;;;;;13.50;11.10;;;;;;;;;;5041162;28;20209;-62
2021/01/24 01:03:15;;;;;;;13.82;11.77;;;;;;;;;;5041150;28;20202;-62
2021/01/24 01:05:41;;;;;;;14.45;11.75;;;;;;;;;;5041245;28;20207;-63
2021/01/24 01:08:08;;;;;;;16.23;13.07;;;;;;;;;;5041090;28;20226;-62
2021/01/24 01:10:35;;;;;;;15.60;12.48;;;;;;;;;;5041518;28;20213;-62
2021/01/24 01:13:03;;;;;;;16.33;13.02;;;;;;;;;;5040857;28;20206;-62
2021/01/24 01:15:30;;;;;;;15.85;12.10;;;;;;;;;;5038716;28;20263;-62
2021/01/24 01:17:56;;;;;;;15.48;12.63;;;;;;;;;;5037047;28;20218;-62
2021/01/24 01:20:23;;;;;;;16.38;12.00;;;;;;;;;;5037642;28;20260;-62
2021/01/24 01:22:50;;;;;;;14.52;11.77;;;;;;;;;;5039844;28;20265;-62
2021/01/24 01:25:17;;;;;;;15.10;11.95;;;;;;;;;;5038482;28;20206;-62
2021/01/24 01:27:43;;;;;;;15.02;12.30;;;;;;;;;;5039308;28;20230;-63
2021/01/24 01:30:12;;;;;;;15.00;11.93;;;;;;;;;;5042516;28;20202;-63
2021/01/24 01:32:38;;;;;;;15.27;12.18;;;;;;;;;;5038209;28;20206;-63
2021/01/24 01:35:06;;;;;;;13.20;11.80;;;;;;;;;;5036723;28;20256;-63
2021/01/24 01:37:33;;;;;;;16.05;11.90;;;;;;;;;;5036515;28;20261;-62
2021/01/24 01:45:49;;;;;;;15.65;12.63;;;;;;;;;;5037277;28;20288;-62
2021/01/24 01:48:17;;;;;;;14.63;11.50;;;;;;;;;;5036328;28;20237;-62
2021/01/24 01:50:44;;;;;;;14.55;10.95;;;;;;;;;;5036259;28;20206;-62
2021/01/24 01:53:10;;;;;;;15.93;12.48;;;;;;;;;;5036247;28;20624;-63
2021/01/24 01:55:37;;;;;;;12.65;10.35;;;;;;;;;;5036015;28;20214;-63
2021/01/24 01:58:04;;;;;;;16.83;11.88;;;;;;;;;;5036027;28;20219;-63
2021/01/24 02:00:30;;;;;;;15.30;12.43;;;;;;;;;;5036183;28;20567;-62
2021/01/24 02:03:21;;;;;;;13.88;11.30;;;;;;;;;;5036878;28;20210;-63
2021/01/24 02:05:55;;;;;;;14.75;10.65;;;;;;;;;;5024356;28;20721;-63
2021/01/24 02:08:26;;;;;;;12.20;10.30;;;;;;;;;;5038781;28;20764;-63
2021/01/24 02:10:53;;;;;;;14.82;10.77;;;;;;;;;;5039400;28;20241;-62
2021/01/24 02:13:28;;;;;;;14.10;11.30;;;;;;;;;;5037554;28;20198;-62
2021/01/24 02:15:57;;;;;;;15.63;11.63;;;;;;;;;;5036653;28;20182;-62
2021/01/24 02:18:25;;;;;;;14.35;11.35;;;;;;;;;;5036331;28;20218;-63
2021/01/24 02:20:57;;;;;;;13.88;11.32;;;;;;;;;;5035950;28;20198;-62
2021/01/24 02:23:26;;;;;;;14.35;11.60;;;;;;;;;;5036084;28;20187;-61
2021/01/24 02:25:55;;;;;;;13.45;11.27;;;;;;;;;;5036163;28;20210;-62
2021/01/24 02:28:26;;;;;;;13.50;11.27;;;;;;;;;;5035808;28;20222;-63
2021/01/24 02:30:54;;;;;;;13.15;10.98;;;;;;;;;;5036328;28;20194;-62
2021/01/24 02:33:24;;;;;;;13.90;11.85;;;;;;;;;;5036065;28;20198;-62
2021/01/24 02:35:52;;;;;;;16.48;12.90;;;;;;;;;;5035416;28;20198;-62
2021/01/24 02:38:20;;;;;;;16.08;12.00;;;;;;;;;;5035386;28;20229;-62
2021/01/24 02:40:47;;;;;;;16.98;12.73;;;;;;;;;;5039376;28;20264;-62
2021/01/24 02:43:15;;;;;;;15.13;11.77;;;;;;;;;;5040491;28;20256;-62
2021/01/24 02:45:42;;;;;;;16.20;12.43;;;;;;;;;;5046582;28;20202;-62
2021/01/24 02:48:10;;;;;;;15.63;11.85;;;;;;;;;;5041180;28;20233;-63
2021/01/24 02:50:37;;;;;;;17.75;12.90;;;;;;;;;;5043238;28;20206;-63
2021/01/24 02:53:05;;;;;;;14.63;12.57;;;;;;;;;;5039956;28;20207;-63
2021/01/24 02:55:32;;;;;;;14.23;12.00;;;;;;;;;;5037871;28;20217;-63
2021/01/24 02:58:00;;;;;;;16.92;12.60;;;;;;;;;;5038783;28;20214;-62
2021/01/24 03:00:27;;;;;;;19.75;13.82;;;;;;;;;;5037911;28;20210;-62
2021/01/24 03:02:54;;;;;;;17.13;13.40;;;;;;;;;;5037497;28;20202;-61
2021/01/24 03:05:22;;;;;;;20.25;13.00;;;;;;;;;;5035462;28;20607;-62
2021/01/24 03:07:49;;;;;;;17.50;12.90;;;;;;;;;;5035103;28;20221;-62
2021/01/24 03:10:16;;;;;;;13.95;12.32;;;;;;;;;;5035018;28;20206;-63
2021/01/24 03:12:47;;;;;;;15.13;13.05;;;;;;;;;;5034891;28;20210;-63
2021/01/24 03:15:16;;;;;;;14.85;12.85;;;;;;;;;;5034970;28;20567;-62
2021/01/24 03:17:43;;;;;;;16.77;13.70;;;;;;;;;;5034589;28;20233;-61
2021/01/24 03:20:11;;;;;;;15.05;12.30;;;;;;;;;;5034925;28;20210;-62
2021/01/24 03:22:39;;;;;;;15.23;12.95;;;;;;;;;;5034809;28;20202;-62
2021/01/24 03:25:06;;;;;;;16.77;12.35;;;;;;;;;;5034203;28;20209;-62
2021/01/24 03:27:33;;;;;;;16.60;13.57;;;;;;;;;;5034641;28;20296;-62
2021/01/24 03:30:00;;;;;;;18.52;13.50;;;;;;;;;;5035276;28;20202;-62
2021/01/24 03:32:27;;;;;;;20.90;15.43;;;;;;;;;;5036861;28;20678;-61
2021/01/24 03:34:54;;;;;;;16.88;13.38;;;;;;;;;;5036191;28;20256;-61
2021/01/24 03:37:20;;;;;;;16.20;14.10;;;;;;;;;;5034289;28;20230;-62
2021/01/24 03:39:48;;;;;;;17.70;12.85;;;;;;;;;;5039106;28;20194;-62
2021/01/24 03:42:15;;;;;;;16.65;12.57;;;;;;;;;;5040291;28;20209;-62
2021/01/24 03:44:42;;;;;;;18.60;14.52;;;;;;;;;;5036984;28;20670;-62
2021/01/24 03:47:11;;;;;;;20.63;14.32;;;;;;;;;;5037430;28;20230;-62
2021/01/24 03:49:38;;;;;;;16.88;13.38;;;;;;;;;;5037616;28;20254;-62
2021/01/24 03:52:05;;;;;;;17.10;13.15;;;;;;;;;;5037546;28;20260;-62
2021/01/24 03:54:31;;;;;;;17.73;13.27;;;;;;;;;;5037175;28;20210;-62
2021/01/24 03:56:59;;;;;;;15.25;13.18;;;;;;;;;;5037871;28;20222;-62
2021/01/24 03:59:26;;;;;;;16.35;13.07;;;;;;;;;;5040415;28;20198;-61
2021/01/24 04:01:53;;;;;;;17.45;14.52;;;;;;;;;;5040845;28;20202;-62
2021/01/24 04:07:38;;;;;;;17.52;13.77;;;;;;;;;;5113842;27;20548;-62
2021/01/24 04:10:05;;;;;;;18.30;13.43;;;;;;;;;;5112172;28;20203;-62
2021/01/24 04:12:31;;;;;;;16.77;13.10;;;;;;;;;;5111882;28;20563;-62
2021/01/24 04:14:58;;;;;;;16.23;14.38;;;;;;;;;;5112447;28;20226;-62
2021/01/24 04:17:25;;;;;;;15.60;13.38;;;;;;;;;;5112183;28;20219;-63
2021/01/24 04:19:52;;;;;;;19.45;13.32;;;;;;;;;;5113458;28;20203;-62
2021/01/24 04:22:18;;;;;;;18.30;11.57;;;;;;;;;;5119794;28;20206;-63
2021/01/24 04:24:46;;;;;;;17.15;12.35;;;;;;;;;;5120896;28;20548;-61
2021/01/24 04:27:13;;;;;;;15.82;13.23;;;;;;;;;;5118475;28;20277;-62
2021/01/24 04:29:40;;;;;;;19.75;14.18;;;;;;;;;;5118047;28;20211;-62
2021/01/24 04:32:06;;;;;;;18.02;12.25;;;;;;;;;;5116692;28;20498;-62
2021/01/24 04:34:33;;;;;;;15.27;13.23;;;;;;;;;;5114155;28;20223;-62
2021/01/24 04:37:00;;;;;;;17.77;14.10;;;;;;;;;;5116781;28;20592;-63
2021/01/24 04:39:27;;;;;;;18.75;14.52;;;;;;;;;;5116040;28;20210;-62
2021/01/24 04:41:55;;;;;;;14.80;12.30;;;;;;;;;;5118849;28;20690;-63
2021/01/24 04:44:23;;;;;;;20.52;13.95;;;;;;;;;;5117303;28;20204;-62
2021/01/24 04:46:50;;;;;;;17.52;13.90;;;;;;;;;;5117833;28;20657;-61
2021/01/24 04:49:17;;;;;;;20.55;14.18;;;;;;;;;;5122859;28;20200;-63
2021/01/24 04:51:44;;;;;;;17.10;12.70;;;;;;;;;;5123240;28;20257;-63
2021/01/24 04:54:12;;;;;;;15.82;14.07;;;;;;;;;;5121152;28;20212;-63
2021/01/24 04:56:39;;;;;;;20.13;13.75;;;;;;;;;;5114384;28;20192;-62
2021/01/24 04:59:07;;;;;;;18.45;14.00;;;;;;;;;;5116374;28;20234;-63
2021/01/24 05:01:36;;;;;;;15.80;13.75;;;;;;;;;;5117287;28;20211;-62
2021/01/24 05:04:03;;;;;;;18.45;13.98;;;;;;;;;;5119605;28;20196;-62
2021/01/24 05:06:30;;;;;;;17.45;13.70;;;;;;;;;;5118526;28;20280;-63
2021/01/24 05:08:59;;;;;;;17.63;12.75;;;;;;;;;;5117932;28;20204;-63
2021/01/24 05:11:26;;;;;;;17.38;13.40;;;;;;;;;;5118174;28;20227;-62
2021/01/24 05:13:53;;;;;;;19.92;14.48;;;;;;;;;;5118476;28;20257;-63
2021/01/24 05:16:23;;;;;;;17.60;14.23;;;;;;;;;;5115675;28;20211;-62
2021/01/24 05:18:56;;;;;;;20.88;15.20;;;;;;;;;;5103261;28;20622;-62
2021/01/24 05:21:23;;;;;;;17.13;13.65;;;;;;;;;;5101750;28;20201;-62
2021/01/24 05:23:49;;;;;;;16.80;13.15;;;;;;;;;;5101723;28;20204;-62
2021/01/24 05:26:16;;;;;;;19.50;14.52;;;;;;;;;;5102259;28;20220;-61
2021/01/24 05:28:47;;;;;;;19.90;14.27;;;;;;;;;;5102211;28;20224;-62
2021/01/24 05:31:14;;;;;;;19.05;15.05;;;;;;;;;;5100421;28;20281;-62
2021/01/24 05:33:44;;;;;;;19.17;14.65;;;;;;;;;;5099993;28;20208;-62
2021/01/24 05:36:11;;;;;;;21.88;15.93;;;;;;;;;;5099117;28;20184;-62
2021/01/24 05:38:38;;;;;;;16.65;14.65;;;;;;;;;;5098155;28;20231;-62
2021/01/24 05:41:06;;;;;;;20.27;15.15;;;;;;;;;;5097940;28;20664;-59
2021/01/24 05:43:35;;;;;;;20.15;14.13;;;;;;;;;;5097094;28;20265;-62
2021/01/24 05:46:02;;;;;;;23.75;15.20;;;;;;;;;;5097354;28;20247;-63
2021/01/24 05:48:29;;;;;;;17.48;15.05;;;;;;;;;;5098056;28;20229;-61
2021/01/24 05:50:57;;;;;;;20.42;15.50;;;;;;;;;;5109868;28;20207;-61
2021/01/24 05:53:24;;;;;;;19.85;16.10;;;;;;;;;;5111661;28;20204;-61
2021/01/24 05:55:51;;;;;;;19.60;15.25;;;;;;;;;;5099804;28;20286;-61
2021/01/24 05:58:19;;;;;;;21.08;15.48;;;;;;;;;;5101454;28;20232;-61
2021/01/24 06:00:46;;;;;;;17.33;14.68;;;;;;;;;;5098245;28;20570;-62
2021/01/24 06:03:13;;;;;;;19.17;15.30;;;;;;;;;;5097200;28;20208;-61
2021/01/24 06:05:40;;;;;;;18.90;14.27;;;;;;;;;;5100292;28;20221;-63
2021/01/24 06:08:08;;;;;;;18.00;14.07;;;;;;;;;;5096833;28;20220;-61
2021/01/24 06:10:35;;;;;;;20.67;15.23;;;;;;;;;;5095949;28;20204;-62
2021/01/24 06:13:03;;;;;;;20.50;15.70;;;;;;;;;;5096130;28;20200;-62
2021/01/24 06:15:30;;;;;;;20.27;15.98;;;;;;;;;;5095819;28;20203;-60
2021/01/24 06:17:57;;;;;;;20.27;14.55;;;;;;;;;;5096485;28;20224;-62
2021/01/24 06:20:26;;;;;;;22.35;15.77;;;;;;;;;;5096608;28;20329;-61
2021/01/24 06:22:55;;;;;;;19.20;14.45;;;;;;;;;;5095998;28;20196;-61
2021/01/24 06:25:25;;;;;;;22.23;14.63;;;;;;;;;;5095602;28;20204;-60
2021/01/24 06:27:54;;;;;;;16.90;14.50;;;;;;;;;;5095741;28;20598;-61
2021/01/24 06:30:24;;;;;;;19.23;14.55;;;;;;;;;;5094449;28;20627;-62
2021/01/24 06:32:51;;;;;;;21.27;15.52;;;;;;;;;;5095430;28;20655;-61
2021/01/24 06:35:19;;;;;;;17.83;14.77;;;;;;;;;;5101563;28;20204;-62
2021/01/24 06:37:50;;;;;;;19.40;15.18;;;;;;;;;;5098049;28;20213;-61
2021/01/24 06:40:24;;;;;;;16.60;14.60;;;;;;;;;;5095506;28;20664;-62
2021/01/24 06:43:01;;;;;;;19.92;15.23;;;;;;;;;;5095312;28;20671;-60
2021/01/24 06:45:41;;;;;;;18.58;14.20;;;;;;;;;;5094858;28;20632;-62
2021/01/24 06:48:08;;;;;;;21.13;15.05;;;;;;;;;;5094964;28;20228;-61
2021/01/24 06:50:38;;;;;;;21.98;14.48;;;;;;;;;;5095959;28;20196;-62
2021/01/24 06:53:06;;;;;;;25.08;14.48;;;;;;;;;;5094934;28;20234;-61
2021/01/24 06:55:33;;;;;;;22.80;14.82;;;;;;;;;;5095262;28;20578;-61
2021/01/24 06:58:15;;;;;;;17.48;14.43;;;;;;;;;;5095975;28;20224;-62
2021/01/24 07:00:42;;;;;;;18.77;14.23;;;;;;;;;;5094889;28;20205;-61
2021/01/24 07:03:18;;;;;;;21.10;14.40;;;;;;;;;;5095400;28;20200;-59
2021/01/24 07:05:45;;;;;;;21.55;14.77;;;;;;;;;;5094868;28;20219;-61
2021/01/24 07:08:26;;;;;;;26.23;15.88;;;;;;;;;;5095200;28;20273;-60
2021/01/24 07:10:54;;;;;;;19.25;15.15;;;;;;;;;;5094633;28;20196;-61
2021/01/24 07:13:36;;;;;;;16.92;14.02;;;;;;;;;;5094772;28;20215;-60
2021/01/24 07:16:04;;;;;;;19.35;14.50;;;;;;;;;;5094703;28;20735;-62
2021/01/24 07:18:41;;;;;;;18.98;14.68;;;;;;;;;;5094726;28;20236;-60
2021/01/24 07:21:08;;;;;;;21.27;15.18;;;;;;;;;;5094647;28;20212;-60
2021/01/24 07:23:35;;;;;;;18.35;14.93;;;;;;;;;;5094892;28;20196;-61
2021/01/24 07:26:03;;;;;;;18.38;14.27;;;;;;;;;;5094966;28;20691;-61
2021/01/24 07:28:31;;;;;;;18.63;14.85;;;;;;;;;;5094922;28;20298;-62
2021/01/24 07:31:01;;;;;;;20.75;14.75;;;;;;;;;;5095384;28;20200;-61
2021/01/24 07:33:30;;;;;;;18.58;13.25;;;;;;;;;;5102454;28;20218;-61
2021/01/24 07:36:01;;;;;;;23.02;16.35;;;;;;;;;;5110780;28;20188;-61
2021/01/24 07:38:28;;;;;;;19.75;14.82;;;;;;;;;;5110351;28;20219;-62
2021/01/24 07:40:56;;;;;;;16.92;13.27;;;;;;;;;;5103898;28;20667;-61
2021/01/24 07:43:23;;;;;;;18.63;14.60;;;;;;;;;;5102410;28;20201;-62
2021/01/24 07:45:51;;;;;;;19.77;15.10;;;;;;;;;;5101853;28;20216;-61
2021/01/24 07:48:18;;;;;;;19.70;14.82;;;;;;;;;;5101758;28;20224;-61
2021/01/24 07:50:45;;;;;;;18.90;14.75;;;;;;;;;;5103572;28;20200;-62
2021/01/24 07:53:12;;;;;;;18.17;14.27;;;;;;;;;;5100536;28;20196;-62
2021/01/24 07:55:38;;;;;;;17.38;13.27;;;;;;;;;;5100800;28;20222;-61
2021/01/24 07:58:05;;;;;;;20.90;14.73;;;;;;;;;;5099700;28;20220;-59
2021/01/24 08:00:34;;;;;;;19.38;13.57;;;;;;;;;;5099763;28;20291;-62
2021/01/24 08:03:02;;;;;;;21.60;15.40;;;;;;;;;;5099441;28;20291;-62
2021/01/24 08:05:32;;;;;;;18.48;14.57;;;;;;;;;;5095768;28;20235;-62
2021/01/24 08:07:59;;;;;;;17.05;14.52;;;;;;;;;;5096191;28;20215;-61
2021/01/24 08:10:29;;;;;;;22.33;15.68;;;;;;;;;;5104860;28;20230;-61
2021/01/24 08:12:56;;;;;;;19.98;15.77;;;;;;;;;;5108275;28;20195;-62
2021/01/24 08:15:23;;;;;;;20.55;15.35;;;;;;;;;;5110232;28;20205;-61
2021/01/24 08:17:50;;;;;;;18.88;14.57;;;;;;;;;;5109460;28;20227;-62
2021/01/24 08:20:18;;;;;;;21.50;16.30;;;;;;;;;;5111671;28;20208;-62
2021/01/24 08:22:45;;;;;;;18.10;14.65;;;;;;;;;;5109697;28;20201;-60
2021/01/24 08:25:12;;;;;;;19.95;15.25;;;;;;;;;;5111734;28;20200;-62
2021/01/24 08:27:40;;;;;;;18.60;15.73;;;;;;;;;;5109255;28;20220;-62
2021/01/24 08:30:08;;;;;;;20.98;16.20;;;;;;;;;;5110520;28;20222;-59
2021/01/24 08:32:35;;;;;;;28.77;18.02;;;;;;;;;;5110873;28;20208;-61
2021/01/24 08:35:01;;;;;;;25.55;17.55;;;;;;;;;;5110186;28;20204;-62
2021/01/24 08:37:30;;;;;;;26.65;17.13;;;;;;;;;;5108025;28;20219;-61
2021/01/24 08:39:57;;;;;;;22.98;17.80;;;;;;;;;;5109723;28;20200;-61
2021/01/24 08:42:23;;;;;;;22.55;18.17;;;;;;;;;;5109177;28;20234;-61
2021/01/24 08:45:00;;;;;;;26.30;17.02;;;;;;;;;;5108978;28;20208;-61
2021/01/24 08:47:27;;;;;;;23.52;17.65;;;;;;;;;;5111523;28;20231;-61
2021/01/24 08:50:04;;;;;;;23.73;17.13;;;;;;;;;;5110101;28;20656;-61
2021/01/24 08:52:32;;;;;;;23.05;18.25;;;;;;;;;;5107469;28;20188;-60
2021/01/24 08:55:02;;;;;;;23.90;18.08;;;;;;;;;;5108633;28;20211;-62
2021/01/24 08:57:33;;;;;;;23.10;18.85;;;;;;;;;;5109632;28;20212;-62
2021/01/24 09:00:01;;;;;;;19.73;17.02;;;;;;;;;;5109988;28;20210;-62
2021/01/24 09:02:31;;;;;;;22.73;17.52;;;;;;;;;;5115059;28;20204;-62
2021/01/24 09:04:58;;;;;;;20.90;17.20;;;;;;;;;;5113774;28;20204;-61
2021/01/24 09:07:35;;;;;;;22.95;18.13;;;;;;;;;;5103273;28;20661;-61
2021/01/24 09:10:13;;;;;;;22.23;18.45;;;;;;;;;;5107421;28;20246;-61
2021/01/24 09:12:40;;;;;;;22.30;17.88;;;;;;;;;;5111771;28;20195;-60
2021/01/24 09:15:07;;;;;;;24.50;17.73;;;;;;;;;;5106932;28;20211;-60
2021/01/24 09:17:34;;;;;;;21.45;17.35;;;;;;;;;;5110532;28;20221;-60
2021/01/24 09:20:01;;;;;;;21.50;17.10;;;;;;;;;;5109265;28;20283;-61
2021/01/24 09:22:27;;;;;;;21.08;17.02;;;;;;;;;;5110559;28;20203;-61
2021/01/24 09:24:54;;;;;;;21.70;17.80;;;;;;;;;;5109744;28;20204;-61
2021/01/24 09:27:22;;;;;;;21.92;17.45;;;;;;;;;;5107728;28;20228;-62
2021/01/24 09:29:49;;;;;;;21.55;17.85;;;;;;;;;;5108279;28;20223;-63
2021/01/24 09:32:15;;;;;;;22.90;18.80;;;;;;;;;;5106761;28;20207;-62
2021/01/24 09:34:42;;;;;;;22.35;17.92;;;;;;;;;;5108822;28;20215;-62
2021/01/24 09:37:09;;;;;;;22.73;18.17;;;;;;;;;;5108608;28;20220;-62
2021/01/24 09:39:36;;;;;;;21.20;17.40;;;;;;;;;;5110031;28;20216;-62
2021/01/24 09:42:02;;;;;;;25.45;19.40;;;;;;;;;;5109308;28;20204;-62
2021/01/24 09:44:32;;;;;;;22.67;17.85;;;;;;;;;;5107604;28;20197;-62
2021/01/24 09:46:59;;;;;;;25.77;18.83;;;;;;;;;;5104385;28;20256;-61
2021/01/24 09:49:26;;;;;;;21.77;18.50;;;;;;;;;;5107022;28;20233;-62
2021/01/24 09:51:52;;;;;;;25.48;18.42;;;;;;;;;;5108689;28;20205;-62
2021/01/24 09:54:19;;;;;;;21.23;17.48;;;;;;;;;;5100012;28;20207;-61
2021/01/24 09:56:46;;;;;;;26.50;19.48;;;;;;;;;;5098092;28;20696;-62
2021/01/24 09:59:14;;;;;;;24.00;19.17;;;;;;;;;;5097206;28;20253;-63
2021/01/24 10:01:42;;;;;;;28.80;20.83;;;;;;;;;;5096943;28;20221;-63
2021/01/24 10:04:09;;;;;;;22.15;18.77;;;;;;;;;;5096589;28;20259;-61
2021/01/24 10:06:35;;;;;;;25.55;19.65;;;;;;;;;;5096869;28;20715;-61
2021/01/24 10:09:02;;;;;;;28.60;18.45;;;;;;;;;;5097010;28;20617;-62
2021/01/24 10:11:29;;;;;;;26.30;18.92;;;;;;;;;;5096385;28;20200;-61
2021/01/24 10:13:56;;;;;;;25.05;18.92;;;;;;;;;;5096367;28;20201;-61
2021/01/24 10:16:23;;;;;;;30.55;19.08;;;;;;;;;;5096804;28;20196;-62
2021/01/24 10:21:17;;;;;;;25.75;18.60;;;;;;;;;;5051942;22;20234;-55
2021/01/24 10:23:43;;;;;;;24.17;19.75;;;;;;;;;;5034560;28;20283;-55
2021/01/24 10:26:10;;;;;;;24.77;19.38;;;;;;;;;;5034406;28;20218;-55
2021/01/24 10:28:37;;;;;;;24.40;17.75;;;;;;;;;;5034306;28;20213;-55
2021/01/24 10:31:04;;;;;;;24.35;19.92;;;;;;;;;;5035186;28;20222;-56
2021/01/24 10:33:30;;;;;;;26.42;20.02;;;;;;;;;;5034224;28;20211;-55
2021/01/24 10:35:57;;;;;;;27.15;19.73;;;;;;;;;;5035844;28;20268;-55
2021/01/24 10:38:25;;;;;;;24.77;18.50;;;;;;;;;;5034556;28;20213;-55
2021/01/24 10:40:52;;;;;;;23.67;18.77;;;;;;;;;;5034772;28;20544;-56
2021/01/24 10:43:18;;;;;;;25.08;18.30;;;;;;;;;;5034512;28;20667;-56
2021/01/24 10:45:45;;;;;;;27.85;18.90;;;;;;;;;;5035200;28;20556;-57
2021/01/24 10:48:12;;;;;;;27.65;20.20;;;;;;;;;;5034982;28;20222;-57
2021/01/24 10:50:40;;;;;;;26.98;19.92;;;;;;;;;;5034244;28;20222;-57
2021/01/24 10:53:07;;;;;;;26.00;20.00;;;;;;;;;;5034207;28;20237;-55
2021/01/24 10:55:34;;;;;;;27.98;20.20;;;;;;;;;;5034195;28;20682;-55
2021/01/24 10:58:01;;;;;;;27.48;18.88;;;;;;;;;;5034652;28;20671;-56
2021/01/24 11:00:28;;;;;;;24.05;18.42;;;;;;;;;;5034911;28;20237;-56
2021/01/24 11:02:56;;;;;;;24.48;18.95;;;;;;;;;;5034937;28;20206;-56
2021/01/24 11:05:23;;;;;;;23.55;19.48;;;;;;;;;;5034686;28;20213;-56
2021/01/24 11:07:49;;;;;;;23.63;18.70;;;;;;;;;;5034137;28;20218;-54
2021/01/24 11:10:16;;;;;;;25.27;19.17;;;;;;;;;;5034126;28;20225;-56
2021/01/24 11:12:44;;;;;;;25.77;19.67;;;;;;;;;;5033756;28;20206;-55
2021/01/24 11:15:11;;;;;;;19.75;16.48;;;;;;;;;;5033209;28;20679;-55
2021/01/24 11:17:39;;;;;;;19.92;16.48;;;;;;;;;;5033739;28;20199;-55
2021/01/24 11:20:07;;;;;;;21.50;18.80;;;;;;;;;;5033402;28;20237;-55
2021/01/24 11:22:34;;;;;;;26.42;19.08;;;;;;;;;;5033479;28;20206;-55
2021/01/24 11:25:00;;;;;;;22.17;17.65;;;;;;;;;;5033793;28;20209;-55
2021/01/24 11:27:27;;;;;;;27.60;19.85;;;;;;;;;;5033526;28;20226;-55
2021/01/24 11:29:55;;;;;;;25.02;18.60;;;;;;;;;;5033548;28;20713;-55
2021/01/24 11:32:23;;;;;;;24.55;18.10;;;;;;;;;;5034045;28;20256;-56
2021/01/24 11:34:50;;;;;;;23.48;17.58;;;;;;;;;;5034164;28;20202;-55
2021/01/24 11:37:16;;;;;;;22.42;18.48;;;;;;;;;;5033901;28;20336;-55
2021/01/24 11:39:43;;;;;;;19.60;16.80;;;;;;;;;;5033445;28;20218;-55
2021/01/24 11:42:10;;;;;;;22.30;17.02;;;;;;;;;;5033375;28;20202;-55
2021/01/24 11:44:37;;;;;;;24.70;19.25;;;;;;;;;;5033172;28;20221;-55
2021/01/24 11:47:05;;;;;;;26.15;19.02;;;;;;;;;;5033255;28;20214;-55
2021/01/24 11:49:32;;;;;;;28.17;18.67;;;;;;;;;;5033231;28;20226;-55
2021/01/24 11:51:58;;;;;;;24.17;20.02;;;;;;;;;;5032948;28;20552;-55
2021/01/24 11:54:25;;;;;;;23.50;19.60;;;;;;;;;;5032865;28;20198;-55
2021/01/24 11:56:52;;;;;;;23.98;19.23;;;;;;;;;;5032809;28;20290;-55
2021/01/24 11:59:19;;;;;;;30.98;22.30;;;;;;;;;;5032684;28;20710;-54
2021/01/24 12:01:45;;;;;;;25.52;20.48;;;;;;;;;;5032611;28;20202;-55
2021/01/24 12:04:13;;;;;;;25.00;20.83;;;;;;;;;;5033225;28;20199;-55
2021/01/24 12:06:40;;;;;;;28.20;21.27;;;;;;;;;;5032716;28;20218;-56
2021/01/24 12:09:06;;;;;;;30.98;20.85;;;;;;;;;;5032809;28;20268;-55
2021/01/24 12:11:35;;;;;;;25.40;20.45;;;;;;;;;;5032950;28;20198;-55
2021/01/24 12:14:02;;;;;;;25.13;18.02;;;;;;;;;;5032891;28;20208;-55
2021/01/24 12:16:28;;;;;;;30.13;20.40;;;;;;;;;;5032916;28;20198;-55
2021/01/24 12:18:55;;;;;;;26.65;20.75;;;;;;;;;;5032775;28;20202;-55
2021/01/24 12:21:23;;;;;;;28.70;20.25;;;;;;;;;;5032811;28;20604;-54
2021/01/24 12:23:49;;;;;;;26.67;20.50;;;;;;;;;;5032778;28;20202;-57
2021/01/24 12:26:16;;;;;;;28.20;19.98;;;;;;;;;;5032798;28;20206;-57
2021/01/24 12:28:43;;;;;;;26.60;20.40;;;;;;;;;;5035270;28;20229;-56
2021/01/24 12:31:10;;;;;;;24.27;20.02;;;;;;;;;;5036336;28;20226;-56
2021/01/24 12:33:37;;;;;;;25.33;20.88;;;;;;;;;;5037248;28;20198;-57
2021/01/24 12:36:04;;;;;;;26.65;20.17;;;;;;;;;;5036842;28;20674;-56
2021/01/24 12:38:31;;;;;;;26.98;21.25;;;;;;;;;;5036470;28;20294;-57
2021/01/24 12:40:59;;;;;;;26.75;21.23;;;;;;;;;;5036469;28;20226;-57
2021/01/24 12:43:27;;;;;;;26.30;19.60;;;;;;;;;;5036323;28;20203;-57
2021/01/24 12:45:54;;;;;;;25.98;21.25;;;;;;;;;;5036820;28;20293;-58
2021/01/24 12:48:21;;;;;;;26.90;20.50;;;;;;;;;;5036616;28;20218;-58
2021/01/24 12:50:48;;;;;;;29.13;21.65;;;;;;;;;;5036791;28;20538;-58
2021/01/24 12:53:14;;;;;;;30.98;23.10;;;;;;;;;;5036243;28;20210;-57
2021/01/24 12:55:42;;;;;;;26.05;21.52;;;;;;;;;;5035696;28;20452;-56
2021/01/24 12:58:09;;;;;;;25.20;20.73;;;;;;;;;;5036221;28;20198;-56
2021/01/24 13:00:35;;;;;;;25.63;20.73;;;;;;;;;;5035917;28;20253;-57
2021/01/24 13:03:02;;;;;;;26.65;20.63;;;;;;;;;;5035884;28;20198;-56
2021/01/24 13:05:29;;;;;;;25.48;19.27;;;;;;;;;;5036142;28;20202;-57
2021/01/24 13:07:56;;;;;;;25.85;19.35;;;;;;;;;;5036511;28;20222;-56
2021/01/24 13:10:22;;;;;;;28.20;17.98;;;;;;;;;;5035890;28;20306;-57
2021/01/24 13:12:50;;;;;;;24.05;19.42;;;;;;;;;;5036241;28;20203;-55
2021/01/24 13:15:17;;;;;;;24.92;18.23;;;;;;;;;;5036233;28;20202;-56
2021/01/24 13:17:43;;;;;;;21.13;16.83;;;;;;;;;;5036105;28;20194;-56
2021/01/24 13:20:10;;;;;;;20.25;16.08;;;;;;;;;;5035645;28;20718;-55
2021/01/24 13:22:37;;;;;;;17.40;14.95;;;;;;;;;;5036421;28;20206;-55
2021/01/24 13:25:04;;;;;;;18.40;15.63;;;;;;;;;;5035351;28;20206;-56
2021/01/24 13:27:31;;;;;;;19.67;15.40;;;;;;;;;;5035311;28;20223;-55
2021/01/24 13:29:59;;;;;;;19.73;15.40;;;;;;;;;;5035711;28;20223;-56
2021/01/24 13:32:25;;;;;;;18.20;15.38;;;;;;;;;;5035783;28;20686;-56
2021/01/24 13:34:52;;;;;;;20.48;16.75;;;;;;;;;;5035356;28;20248;-56
2021/01/24 13:37:19;;;;;;;22.15;16.48;;;;;;;;;;5035411;28;20198;-56
2021/01/24 13:39:46;;;;;;;17.02;14.15;;;;;;;;;;5034714;28;20710;-55
2021/01/24 13:42:12;;;;;;;18.20;14.50;;;;;;;;;;5035384;28;20288;-57
2021/01/24 13:44:39;;;;;;;18.95;15.90;;;;;;;;;;5035724;28;20202;-57
2021/01/24 13:47:07;;;;;;;18.58;15.52;;;;;;;;;;5035036;28;20233;-55
2021/01/24 13:49:34;;;;;;;19.83;16.45;;;;;;;;;;5035315;28;20486;-55
2021/01/24 13:52:00;;;;;;;19.30;15.80;;;;;;;;;;5035815;28;20210;-56
2021/01/24 13:54:27;;;;;;;21.45;16.75;;;;;;;;;;5035048;28;20211;-56
2021/01/24 13:56:54;;;;;;;21.73;17.50;;;;;;;;;;5035271;28;20207;-54
2021/01/24 13:59:21;;;;;;;19.92;15.10;;;;;;;;;;5035460;28;20219;-58
2021/01/24 14:01:47;;;;;;;24.10;17.25;;;;;;;;;;5035415;28;20207;-57
2021/01/24 14:04:15;;;;;;;24.30;15.65;;;;;;;;;;5034734;28;20686;-55
2021/01/24 14:06:42;;;;;;;17.85;15.38;;;;;;;;;;5035054;28;20214;-55
2021/01/24 14:09:08;;;;;;;21.58;15.65;;;;;;;;;;5034842;28;20619;-55
2021/01/24 14:11:35;;;;;;;17.25;14.05;;;;;;;;;;5035015;28;20252;-55
2021/01/24 14:14:03;;;;;;;18.45;15.40;;;;;;;;;;5035147;28;20207;-55
2021/01/24 14:16:29;;;;;;;17.65;14.38;;;;;;;;;;5035045;28;20198;-55
2021/01/24 14:18:56;;;;;;;20.38;15.10;;;;;;;;;;5034967;28;20203;-56
2021/01/24 14:21:24;;;;;;;18.48;16.00;;;;;;;;;;5035053;28;20202;-54
2021/01/24 14:23:51;;;;;;;19.63;14.73;;;;;;;;;;5034724;28;20614;-56
2021/01/24 14:26:18;;;;;;;19.90;14.98;;;;;;;;;;5034864;28;20623;-55
2021/01/24 14:28:45;;;;;;;19.70;16.75;;;;;;;;;;5034448;28;20215;-55
2021/01/24 14:31:12;;;;;;;20.88;15.18;;;;;;;;;;5034111;28;20705;-56